Time;durP1;ratioP1;P1;durP2;ratioP2;P2;SDS_P1;SDS_P2;PMS_P1;PMS_P2;Temp;Humidity;BMP_temperature;BMP_pressure;BME280_temperature;BME280_humidity;BME280_pressure;Samples;Min_cycle;Max_cycle;Signal;HPM_P1;HPM_P2
2021/12/29 00:00:02;;;;;;;0.98;0.38;;;21.40;42.10;;;;;;5050444;28;20048;-56
2021/12/29 00:02:38;;;;;;;0.50;0.20;;;21.40;42.10;;;;;;5053103;28;20107;-55
2021/12/29 00:05:05;;;;;;;0.45;0.30;;;21.40;42.20;;;;;;5050009;28;20448;-49
2021/12/29 00:07:31;;;;;;;0.65;0.28;;;21.40;42.10;;;;;;5054375;28;20391;-49
2021/12/29 00:10:00;;;;;;;0.70;0.40;;;21.40;42.80;;;;;;5053180;28;20037;-55
2021/12/29 00:12:26;;;;;;;0.85;0.40;;;21.40;42.10;;;;;;5053130;28;20020;-55
2021/12/29 00:14:56;;;;;;;0.68;0.30;;;21.40;42.10;;;;;;5050978;28;20433;-55
2021/12/29 00:17:22;;;;;;;0.32;0.28;;;21.40;42.10;;;;;;5053123;28;20028;-52
2021/12/29 00:19:48;;;;;;;0.93;0.40;;;21.30;42.10;;;;;;5054244;28;20083;-51
2021/12/29 00:22:14;;;;;;;0.30;0.20;;;21.30;42.10;;;;;;5053457;28;20037;-57
2021/12/29 00:24:41;;;;;;;1.05;0.32;;;21.40;42.10;;;;;;5053903;28;20512;-50
2021/12/29 00:27:07;;;;;;;0.70;0.30;;;21.40;42.10;;;;;;5052900;28;20049;-53
2021/12/29 00:29:33;;;;;;;0.88;0.22;;;21.30;42.10;;;;;;5036510;28;20102;-50
2021/12/29 00:32:19;;;;;;;0.80;0.30;;;21.40;42.10;;;;;;5051489;28;20029;-52
2021/12/29 00:35:05;;;;;;;0.57;0.22;;;21.30;42.10;;;;;;5051419;28;20124;-50
2021/12/29 00:37:50;;;;;;;0.55;0.35;;;21.30;42.10;;;;;;5052940;28;20106;-50
2021/12/29 00:40:54;;;;;;;0.80;0.30;;;21.30;42.10;;;;;;4995577;28;20025;-50
2021/12/29 00:43:39;;;;;;;0.30;0.20;;;21.30;42.10;;;;;;5053511;28;20090;-54
2021/12/29 00:46:26;;;;;;;0.22;0.20;;;21.30;42.10;;;;;;5046034;28;20090;-53
2021/12/29 00:48:51;;;;;;;0.40;0.40;;;21.20;42.10;;;;;;5052837;28;20033;-53
2021/12/29 00:51:17;;;;;;;0.80;0.30;;;21.30;42.20;;;;;;5052637;28;20035;-54
2021/12/29 00:53:44;;;;;;;0.50;0.20;;;21.30;42.20;;;;;;5046450;28;20071;-51
2021/12/29 00:56:10;;;;;;;0.40;0.30;;;21.30;42.20;;;;;;5052213;28;20021;-54
2021/12/29 00:58:35;;;;;;;0.30;0.28;;;21.20;42.20;;;;;;5051898;28;20097;-53
2021/12/29 01:01:03;;;;;;;0.40;0.28;;;21.20;42.20;;;;;;5053208;28;20104;-51
2021/12/29 01:03:29;;;;;;;0.20;0.20;;;21.30;42.20;;;;;;5032985;28;20041;-49
2021/12/29 01:05:55;;;;;;;0.40;0.20;;;21.20;42.20;;;;;;5034426;28;20031;-51
2021/12/29 01:08:21;;;;;;;0.68;0.30;;;21.20;42.20;;;;;;5050232;28;20127;-51
2021/12/29 01:10:47;;;;;;;0.82;0.60;;;21.30;42.30;;;;;;5050530;28;20347;-51
2021/12/29 01:13:18;;;;;;;0.52;0.30;;;21.20;42.20;;;;;;5050473;28;20032;-53
2021/12/29 01:18:30;;;;;;;0.95;0.50;;;21.20;42.20;;;;;;5051082;28;20470;-50
2021/12/29 01:20:56;;;;;;;1.00;0.40;;;21.20;42.20;;;;;;5053044;28;20033;-50
2021/12/29 01:23:23;;;;;;;0.98;0.40;;;21.20;42.30;;;;;;5050908;28;20447;-51
2021/12/29 01:25:49;;;;;;;0.88;0.50;;;21.20;42.30;;;;;;5050973;28;20045;-52
2021/12/29 01:28:14;;;;;;;0.47;0.30;;;21.20;42.30;;;;;;5050834;28;20048;-48
2021/12/29 01:30:40;;;;;;;0.88;0.40;;;21.20;42.40;;;;;;5052687;28;20412;-55
2021/12/29 01:33:06;;;;;;;0.70;0.40;;;21.20;42.40;;;;;;5051383;28;20020;-52
2021/12/29 01:35:41;;;;;;;0.57;0.40;;;21.20;42.40;;;;;;5051395;28;20052;-46
2021/12/29 01:38:09;;;;;;;0.90;0.40;;;21.20;42.40;;;;;;5051634;28;20033;-48
2021/12/29 01:40:36;;;;;;;2.15;0.50;;;21.20;42.40;;;;;;5051852;28;20021;-54
2021/12/29 01:43:07;;;;;;;0.88;0.47;;;21.20;42.40;;;;;;5052497;28;20043;-50
2021/12/29 01:45:33;;;;;;;0.70;0.47;;;21.20;42.40;;;;;;5051274;28;20374;-52
2021/12/29 01:48:03;;;;;;;0.77;0.45;;;21.20;42.50;;;;;;5053274;28;20070;-52
2021/12/29 01:50:32;;;;;;;0.82;0.50;;;21.20;42.40;;;;;;5054332;28;20048;-54
2021/12/29 01:53:03;;;;;;;0.75;0.40;;;21.20;42.40;;;;;;5047733;28;20086;-49
2021/12/29 01:55:30;;;;;;;0.85;0.40;;;21.20;42.50;;;;;;5051280;28;20105;-50
2021/12/29 01:57:57;;;;;;;2.63;0.50;;;21.10;42.40;;;;;;5051833;28;20036;-48
2021/12/29 02:00:25;;;;;;;0.70;0.50;;;21.10;42.40;;;;;;5052170;28;20309;-54
2021/12/29 02:02:52;;;;;;;1.40;0.60;;;21.10;42.40;;;;;;5051371;28;20110;-54
2021/12/29 02:05:18;;;;;;;1.13;0.70;;;21.10;42.40;;;;;;5051315;28;20035;-51
2021/12/29 02:07:44;;;;;;;0.60;0.50;;;21.10;42.40;;;;;;5054245;28;20266;-53
2021/12/29 02:10:12;;;;;;;0.68;0.52;;;21.10;42.40;;;;;;5055761;28;20036;-49
2021/12/29 02:12:38;;;;;;;1.85;0.70;;;21.10;42.40;;;;;;5055056;28;20051;-54
2021/12/29 02:15:06;;;;;;;1.17;0.40;;;21.10;42.40;;;;;;5056023;28;20039;-51
2021/12/29 02:17:32;;;;;;;0.93;0.50;;;21.10;42.40;;;;;;5055800;28;20120;-55
2021/12/29 02:20:04;;;;;;;1.27;0.70;;;21.10;42.50;;;;;;5053916;28;20094;-51
2021/12/29 02:25:08;;;;;;;1.38;0.80;;;21.10;42.50;;;;;;5055726;28;20052;-50
2021/12/29 02:27:36;;;;;;;1.55;0.60;;;21.10;42.50;;;;;;5051017;28;20427;-49
2021/12/29 02:30:03;;;;;;;1.52;0.68;;;21.10;42.50;;;;;;5055821;28;20047;-50
2021/12/29 02:32:29;;;;;;;1.02;0.50;;;21.10;42.50;;;;;;5053517;28;20443;-54
2021/12/29 02:34:55;;;;;;;0.98;0.60;;;21.00;42.50;;;;;;5055602;28;20037;-50
2021/12/29 02:37:22;;;;;;;1.52;0.65;;;21.10;42.60;;;;;;5054568;28;20025;-50
2021/12/29 02:39:49;;;;;;;1.05;0.50;;;21.10;42.60;;;;;;5054184;28;20091;-54
2021/12/29 02:42:16;;;;;;;2.88;0.93;;;21.10;42.60;;;;;;5054082;28;20100;-53
2021/12/29 02:44:42;;;;;;;1.05;0.60;;;21.10;42.60;;;;;;5036733;28;20347;-49
2021/12/29 02:47:09;;;;;;;0.82;0.50;;;21.00;42.60;;;;;;5055384;28;20017;-50
2021/12/29 02:49:35;;;;;;;1.20;0.57;;;21.00;42.60;;;;;;5054648;28;20388;-54
2021/12/29 02:52:02;;;;;;;1.58;0.82;;;21.00;42.50;;;;;;5038855;28;20100;-56
2021/12/29 02:54:27;;;;;;;1.65;0.63;;;21.00;42.50;;;;;;5054062;28;20378;-54
2021/12/29 02:56:56;;;;;;;1.55;0.63;;;21.00;42.50;;;;;;5055118;28;20029;-54
2021/12/29 02:59:23;;;;;;;1.13;0.60;;;21.00;42.50;;;;;;5054945;28;20075;-53
2021/12/29 03:01:51;;;;;;;1.30;0.60;;;21.00;42.50;;;;;;5054996;28;20430;-54
2021/12/29 03:04:17;;;;;;;0.98;0.50;;;21.00;42.60;;;;;;5052738;28;20128;-52
2021/12/29 03:06:43;;;;;;;1.42;0.50;;;21.00;42.50;;;;;;5054828;28;20020;-53
2021/12/29 03:09:12;;;;;;;1.33;0.70;;;21.00;42.50;;;;;;5054670;28;20332;-54
2021/12/29 03:11:41;;;;;;;1.15;0.52;;;21.00;42.60;;;;;;5054797;28;20056;-51
2021/12/29 03:14:08;;;;;;;0.60;0.57;;;21.00;42.50;;;;;;5035982;28;20029;-53
2021/12/29 03:16:34;;;;;;;1.05;0.52;;;21.00;42.50;;;;;;5055023;28;20031;-54
2021/12/29 03:19:02;;;;;;;1.05;0.60;;;20.90;42.50;;;;;;5052544;28;20037;-54
2021/12/29 03:21:29;;;;;;;1.35;0.63;;;21.00;42.50;;;;;;5055208;28;20031;-48
2021/12/29 03:23:54;;;;;;;0.77;0.50;;;20.90;42.50;;;;;;5054667;28;20054;-47
2021/12/29 03:26:20;;;;;;;0.82;0.60;;;21.00;43.10;;;;;;5054426;28;20108;-52
2021/12/29 03:28:46;;;;;;;1.75;0.73;;;21.00;42.50;;;;;;5053043;28;20028;-55
2021/12/29 03:31:14;;;;;;;0.70;0.50;;;21.00;42.50;;;;;;5052583;28;20179;-53
2021/12/29 03:33:42;;;;;;;1.35;0.73;;;21.00;42.50;;;;;;5054116;28;20029;-50
2021/12/29 03:36:09;;;;;;;1.75;0.85;;;21.00;42.50;;;;;;5054797;28;20440;-49
2021/12/29 03:38:37;;;;;;;1.20;0.60;;;21.00;42.50;;;;;;5053294;28;20437;-50
2021/12/29 03:41:06;;;;;;;1.08;0.57;;;21.00;42.60;;;;;;5054149;28;20044;-57
2021/12/29 03:43:32;;;;;;;1.02;0.60;;;20.90;42.50;;;;;;5053558;28;20025;-54
2021/12/29 03:45:59;;;;;;;1.83;0.68;;;20.90;42.60;;;;;;5054532;28;20040;-51
2021/12/29 03:48:27;;;;;;;1.17;0.63;;;20.90;42.60;;;;;;5050798;28;20055;-50
2021/12/29 03:50:58;;;;;;;1.10;0.60;;;20.90;42.60;;;;;;5052018;28;20367;-50
2021/12/29 03:53:24;;;;;;;1.33;0.60;;;20.90;42.60;;;;;;5053743;28;20029;-56
2021/12/29 03:55:51;;;;;;;1.88;0.77;;;20.90;42.60;;;;;;5056324;28;20036;-50
2021/12/29 03:58:19;;;;;;;0.82;0.57;;;20.90;42.70;;;;;;5055559;28;20055;-48
2021/12/29 04:00:46;;;;;;;1.15;0.60;;;20.90;42.70;;;;;;5054841;28;20025;-57
2021/12/29 04:03:12;;;;;;;1.27;0.40;;;20.90;42.70;;;;;;5047029;28;20045;-53
2021/12/29 04:05:38;;;;;;;1.23;0.75;;;20.80;42.70;;;;;;5043648;28;20082;-56
2021/12/29 04:08:04;;;;;;;0.95;0.63;;;20.80;42.70;;;;;;5031854;28;20376;-53
2021/12/29 04:10:31;;;;;;;1.13;0.60;;;20.80;42.70;;;;;;5052640;28;20112;-50
2021/12/29 04:12:58;;;;;;;1.75;0.60;;;20.90;42.70;;;;;;5046332;28;20483;-52
2021/12/29 04:15:29;;;;;;;0.55;0.50;;;20.80;42.70;;;;;;5035808;28;20116;-53
2021/12/29 04:17:58;;;;;;;1.60;0.80;;;20.90;42.70;;;;;;5023992;28;20024;-51
2021/12/29 04:23:14;;;;;;;0.95;0.40;;;20.80;42.70;;;;;;5054283;28;20090;-54
2021/12/29 04:25:45;;;;;;;1.42;0.73;;;20.80;42.70;;;;;;5055247;28;20116;-50
2021/12/29 04:28:15;;;;;;;1.45;0.70;;;20.80;42.80;;;;;;5043781;28;20301;-50
2021/12/29 04:30:42;;;;;;;1.17;0.50;;;20.80;42.80;;;;;;5047714;28;20061;-55
2021/12/29 04:33:08;;;;;;;0.90;0.50;;;20.80;42.80;;;;;;5043394;28;20108;-54
2021/12/29 04:35:34;;;;;;;1.33;0.60;;;20.80;42.80;;;;;;5040297;28;20021;-49
2021/12/29 04:38:00;;;;;;;2.10;0.63;;;20.80;42.80;;;;;;5055061;28;20386;-56
2021/12/29 04:40:26;;;;;;;1.08;0.55;;;20.80;42.80;;;;;;5053541;28;20025;-51
2021/12/29 04:42:52;;;;;;;0.85;0.50;;;20.80;42.80;;;;;;5055498;28;20400;-48
2021/12/29 04:45:18;;;;;;;1.48;0.60;;;20.80;42.80;;;;;;5048883;28;20021;-51
2021/12/29 04:47:46;;;;;;;1.55;0.60;;;20.80;42.80;;;;;;5032669;28;20029;-50
2021/12/29 04:51:05;;;;;;;1.35;0.68;;;20.80;42.80;;;;;;5043413;28;20733;-50
2021/12/29 04:53:07;;;;;;;1.42;0.65;;;20.80;42.80;;;;;;5041669;28;20025;-49
2021/12/29 04:55:33;;;;;;;1.17;0.50;;;20.80;42.80;;;;;;5041062;28;20029;-51
2021/12/29 04:58:00;;;;;;;1.15;0.40;;;20.80;42.80;;;;;;5047684;28;20065;-50
2021/12/29 05:00:29;;;;;;;1.60;0.50;;;20.70;42.80;;;;;;5044668;28;20119;-54
2021/12/29 05:02:55;;;;;;;0.85;0.50;;;20.70;42.80;;;;;;5048531;28;20314;-54
2021/12/29 05:05:38;;;;;;;1.10;0.65;;;20.70;42.80;;;;;;5045866;28;20025;-54
2021/12/29 05:10:54;;;;;;;1.30;0.60;;;20.80;42.90;;;;;;5050089;28;20045;-49
2021/12/29 05:13:20;;;;;;;2.25;0.70;;;20.70;42.90;;;;;;5045200;28;20025;-49
2021/12/29 05:15:46;;;;;;;2.40;0.75;;;20.70;42.90;;;;;;5048771;28;20029;-50
2021/12/29 05:18:12;;;;;;;1.05;0.50;;;20.70;42.90;;;;;;5054813;28;20048;-51
2021/12/29 05:20:38;;;;;;;1.50;0.65;;;20.70;42.90;;;;;;5052820;28;20486;-46
2021/12/29 05:23:04;;;;;;;1.38;0.50;;;20.70;42.90;;;;;;5054236;28;20104;-47
2021/12/29 05:25:30;;;;;;;1.98;0.73;;;20.70;42.90;;;;;;5043769;28;20021;-53
2021/12/29 05:27:56;;;;;;;1.10;0.47;;;20.70;42.90;;;;;;5053574;28;20562;-55
2021/12/29 05:30:23;;;;;;;0.93;0.43;;;20.70;42.90;;;;;;5052708;28;20336;-52
2021/12/29 05:32:49;;;;;;;1.48;0.55;;;20.70;42.90;;;;;;5041302;28;20107;-55
2021/12/29 05:35:15;;;;;;;1.00;0.45;;;20.70;42.90;;;;;;5046763;28;20029;-47
2021/12/29 05:37:41;;;;;;;1.48;0.50;;;20.70;42.90;;;;;;5051005;28;20033;-57
2021/12/29 05:40:09;;;;;;;0.65;0.50;;;20.70;42.90;;;;;;5053060;28;20471;-53
2021/12/29 05:42:35;;;;;;;1.33;0.40;;;20.70;42.90;;;;;;5049374;28;20040;-53
2021/12/29 05:45:08;;;;;;;0.60;0.40;;;20.70;42.90;;;;;;5046594;28;20440;-47
2021/12/29 05:47:34;;;;;;;0.82;0.50;;;20.70;43.00;;;;;;5057767;28;20096;-52
2021/12/29 05:49:59;;;;;;;0.98;0.43;;;20.70;43.00;;;;;;5057438;28;20025;-50
2021/12/29 05:52:25;;;;;;;0.98;0.52;;;20.70;43.00;;;;;;5055474;28;21952;-50
2021/12/29 05:54:51;;;;;;;2.70;0.50;;;20.70;43.00;;;;;;5038872;28;20482;-48
2021/12/29 05:57:17;;;;;;;1.02;0.50;;;20.70;43.00;;;;;;5043028;28;20435;-49
2021/12/29 05:59:43;;;;;;;0.80;0.40;;;20.60;42.90;;;;;;5057600;28;20013;-53
2021/12/29 06:02:09;;;;;;;1.38;0.47;;;20.70;43.00;;;;;;5045410;28;20025;-53
2021/12/29 06:04:35;;;;;;;0.57;0.35;;;20.70;43.00;;;;;;5038523;28;20132;-48
2021/12/29 06:07:01;;;;;;;0.75;0.40;;;20.60;43.00;;;;;;5041582;28;20083;-52
2021/12/29 06:09:26;;;;;;;1.20;0.60;;;20.60;43.00;;;;;;5047211;28;20040;-54
2021/12/29 06:11:52;;;;;;;0.65;0.30;;;20.60;43.70;;;;;;5058446;28;20021;-57
2021/12/29 06:14:18;;;;;;;0.70;0.30;;;20.60;43.10;;;;;;5049068;28;20494;-51
2021/12/29 06:16:44;;;;;;;0.70;0.30;;;20.60;43.10;;;;;;5049705;28;20025;-50
2021/12/29 06:19:10;;;;;;;1.55;0.38;;;20.60;43.70;;;;;;5056463;28;20079;-48
2021/12/29 06:21:36;;;;;;;0.73;0.40;;;20.60;43.10;;;;;;5056994;28;20056;-54
2021/12/29 06:24:02;;;;;;;1.00;0.50;;;20.60;43.10;;;;;;5050752;28;20032;-50
2021/12/29 06:26:28;;;;;;;0.63;0.20;;;20.60;43.10;;;;;;5047553;28;20482;-53
2021/12/29 06:28:54;;;;;;;0.98;0.40;;;20.60;43.10;;;;;;5045607;28;20020;-56
2021/12/29 06:31:19;;;;;;;1.10;0.50;;;20.60;43.20;;;;;;5055553;28;20459;-50
2021/12/29 06:33:46;;;;;;;0.90;0.68;;;20.60;43.10;;;;;;5052048;28;20021;-51
2021/12/29 06:36:12;;;;;;;0.75;0.45;;;20.60;43.20;;;;;;5057809;28;20025;-48
2021/12/29 06:38:38;;;;;;;0.47;0.25;;;20.60;43.20;;;;;;5053527;28;20089;-47
2021/12/29 06:41:04;;;;;;;0.40;0.30;;;20.60;43.20;;;;;;5057154;28;20028;-52
2021/12/29 06:43:29;;;;;;;0.40;0.20;;;20.60;43.20;;;;;;5052331;28;20036;-51
2021/12/29 06:45:55;;;;;;;0.80;0.40;;;20.60;43.20;;;;;;5057391;28;20035;-51
2021/12/29 06:48:21;;;;;;;0.68;0.30;;;20.60;43.30;;;;;;5056126;28;20016;-49
2021/12/29 06:50:47;;;;;;;0.68;0.30;;;20.60;43.20;;;;;;5057925;28;20029;-53
2021/12/29 06:53:13;;;;;;;0.50;0.20;;;20.60;43.30;;;;;;5055955;28;20021;-49
2021/12/29 06:55:39;;;;;;;0.70;0.50;;;20.50;43.20;;;;;;5040029;28;20025;-49
2021/12/29 06:58:05;;;;;;;0.98;0.40;;;20.60;43.30;;;;;;5056089;28;20037;-50
2021/12/29 07:00:33;;;;;;;0.28;0.20;;;20.60;43.30;;;;;;5056138;28;20130;-52
2021/12/29 07:02:59;;;;;;;0.82;0.40;;;20.60;43.30;;;;;;5045211;28;20053;-52
2021/12/29 07:05:25;;;;;;;0.30;0.30;;;20.50;43.90;;;;;;5052649;28;20121;-52
2021/12/29 07:07:52;;;;;;;0.25;0.20;;;20.50;43.30;;;;;;5047781;28;20467;-52
2021/12/29 07:10:18;;;;;;;0.35;0.25;;;20.50;43.30;;;;;;5056845;28;20047;-56
2021/12/29 07:12:44;;;;;;;0.52;0.40;;;20.50;43.30;;;;;;5047894;28;20022;-54
2021/12/29 07:15:10;;;;;;;0.90;0.38;;;20.50;43.30;;;;;;5053291;28;20337;-56
2021/12/29 07:17:35;;;;;;;1.98;0.30;;;20.50;43.30;;;;;;5055712;28;20036;-52
2021/12/29 07:20:02;;;;;;;0.40;0.28;;;20.50;43.30;;;;;;5057105;28;20021;-56
2021/12/29 07:22:28;;;;;;;0.47;0.30;;;20.50;43.30;;;;;;5051945;28;20108;-50
2021/12/29 07:24:53;;;;;;;1.25;0.30;;;20.50;43.40;;;;;;5055190;28;20060;-54
2021/12/29 07:27:19;;;;;;;0.65;0.30;;;20.50;43.40;;;;;;5055462;28;20037;-53
2021/12/29 07:29:45;;;;;;;0.50;0.30;;;20.50;43.40;;;;;;5055567;28;20024;-55
2021/12/29 07:32:11;;;;;;;1.05;0.30;;;20.50;43.40;;;;;;5054370;28;20111;-57
2021/12/29 07:34:37;;;;;;;1.20;0.38;;;20.50;43.40;;;;;;5054960;28;20028;-55
2021/12/29 07:37:03;;;;;;;0.52;0.38;;;20.50;43.40;;;;;;5053715;28;20032;-53
2021/12/29 07:39:29;;;;;;;0.63;0.30;;;20.50;43.40;;;;;;5055550;28;20041;-53
2021/12/29 07:41:55;;;;;;;1.77;0.55;;;20.50;43.40;;;;;;5052585;28;20028;-50
2021/12/29 07:44:28;;;;;;;2.47;0.70;;;20.50;43.50;;;;;;5024943;28;20111;-52
2021/12/29 07:46:57;;;;;;;1.52;0.68;;;20.50;43.50;;;;;;5039985;28;20021;-46
2021/12/29 07:49:23;;;;;;;2.58;0.60;;;20.50;43.50;;;;;;5051732;28;20028;-56
2021/12/29 07:51:50;;;;;;;2.42;0.63;;;20.50;43.50;;;;;;5054756;28;20074;-46
2021/12/29 07:54:16;;;;;;;1.15;0.50;;;20.50;43.50;;;;;;5054488;28;20099;-49
2021/12/29 07:56:43;;;;;;;1.48;0.50;;;20.50;43.60;;;;;;5055232;28;20032;-49
2021/12/29 07:59:09;;;;;;;2.33;0.80;;;20.50;43.60;;;;;;5054083;28;20057;-49
2021/12/29 08:01:35;;;;;;;1.73;0.65;;;20.50;43.60;;;;;;5053144;28;20036;-52
2021/12/29 08:04:01;;;;;;;2.17;0.73;;;20.50;43.70;;;;;;5051190;28;20056;-49
2021/12/29 08:06:27;;;;;;;3.83;0.73;;;20.50;43.60;;;;;;5042900;28;20025;-53
2021/12/29 08:08:54;;;;;;;2.60;0.80;;;20.50;43.60;;;;;;5035870;28;20029;-53
2021/12/29 08:11:20;;;;;;;1.63;0.60;;;20.60;43.50;;;;;;5051057;28;20513;-48
2021/12/29 08:13:47;;;;;;;1.95;0.75;;;20.70;43.40;;;;;;5054870;28;20064;-54
2021/12/29 08:16:13;;;;;;;2.13;0.77;;;20.80;43.40;;;;;;5038807;28;20408;-49
2021/12/29 08:18:39;;;;;;;2.22;0.77;;;20.90;43.30;;;;;;5050614;28;20131;-48
2021/12/29 08:21:05;;;;;;;1.75;0.70;;;21.00;43.20;;;;;;5052566;28;20055;-52
2021/12/29 08:23:31;;;;;;;2.50;0.73;;;21.10;43.10;;;;;;5052579;28;20033;-50
2021/12/29 08:25:58;;;;;;;1.92;0.70;;;21.20;43.10;;;;;;5051742;28;20419;-48
2021/12/29 08:28:24;;;;;;;1.65;0.68;;;21.30;42.90;;;;;;5052320;28;20021;-54
2021/12/29 08:30:54;;;;;;;2.08;0.80;;;21.30;42.80;;;;;;5044457;28;20112;-50
2021/12/29 08:33:20;;;;;;;2.90;0.93;;;21.40;42.70;;;;;;5040853;28;20080;-53
2021/12/29 08:35:46;;;;;;;1.52;0.65;;;21.50;42.70;;;;;;5052787;28;20036;-52
2021/12/29 08:38:16;;;;;;;2.08;0.85;;;21.50;42.60;;;;;;5054987;28;20047;-53
2021/12/29 08:40:43;;;;;;;2.25;1.10;;;21.60;42.60;;;;;;5053985;28;20083;-53
2021/12/29 08:43:09;;;;;;;2.25;0.93;;;21.60;42.50;;;;;;5054548;28;20134;-50
2021/12/29 08:45:38;;;;;;;3.22;1.10;;;21.70;42.40;;;;;;5054382;28;20025;-57
2021/12/29 08:48:05;;;;;;;3.72;1.02;;;21.80;42.40;;;;;;5053944;28;20107;-52
2021/12/29 08:50:32;;;;;;;3.22;1.08;;;21.80;42.30;;;;;;5052912;28;20552;-48
2021/12/29 08:53:02;;;;;;;2.83;0.77;;;21.80;42.20;;;;;;5053879;28;20039;-52
2021/12/29 08:55:29;;;;;;;2.25;1.10;;;21.90;42.20;;;;;;5042492;28;20076;-54
2021/12/29 08:57:55;;;;;;;2.42;0.80;;;21.90;42.10;;;;;;5048216;28;20041;-52
2021/12/29 09:00:21;;;;;;;3.08;1.08;;;22.00;42.10;;;;;;5044484;28;20153;-52
2021/12/29 09:02:48;;;;;;;2.30;0.88;;;22.00;42.10;;;;;;5036025;28;20452;-49
2021/12/29 09:05:18;;;;;;;6.13;1.02;;;22.10;42.10;;;;;;5039980;28;20044;-52
2021/12/29 09:07:46;;;;;;;4.07;1.15;;;22.10;42.00;;;;;;5053989;28;20051;-54
2021/12/29 09:10:15;;;;;;;2.40;0.98;;;22.10;41.90;;;;;;5050295;28;20386;-50
2021/12/29 09:12:41;;;;;;;2.42;0.88;;;22.20;41.80;;;;;;5039397;28;20055;-52
2021/12/29 09:15:08;;;;;;;2.17;0.80;;;22.20;41.80;;;;;;5040127;28;20017;-52
2021/12/29 09:17:34;;;;;;;2.25;1.00;;;22.30;41.70;;;;;;5052983;28;20104;-59
2021/12/29 09:20:01;;;;;;;2.92;1.00;;;22.30;41.60;;;;;;5053572;28;20108;-53
2021/12/29 09:22:27;;;;;;;3.80;1.00;;;22.30;41.50;;;;;;5053484;28;20377;-54
2021/12/29 09:24:53;;;;;;;2.25;1.00;;;22.40;41.50;;;;;;5052169;28;20037;-55
2021/12/29 09:27:20;;;;;;;1.80;0.70;;;22.40;41.40;;;;;;5055163;28;20108;-54
2021/12/29 09:29:46;;;;;;;3.00;1.00;;;22.40;41.20;;;;;;5052275;28;20021;-58
2021/12/29 09:32:13;;;;;;;2.40;0.90;;;22.50;41.20;;;;;;5053609;28;20056;-54
2021/12/29 09:34:39;;;;;;;1.75;1.00;;;22.50;41.00;;;;;;5054712;28;20017;-59
2021/12/29 09:37:06;;;;;;;1.90;0.80;;;22.60;41.00;;;;;;5046529;28;20025;-60
2021/12/29 09:39:33;;;;;;;2.78;1.30;;;22.60;40.80;;;;;;5037557;28;20052;-54
2021/12/29 09:41:59;;;;;;;1.85;0.80;;;22.60;40.80;;;;;;5042712;28;20446;-53
2021/12/29 09:44:25;;;;;;;2.88;0.68;;;22.60;40.70;;;;;;5048980;28;20082;-57
2021/12/29 09:46:53;;;;;;;0.70;0.52;;;22.60;40.60;;;;;;5052895;28;20104;-55
2021/12/29 09:49:19;;;;;;;2.03;0.82;;;22.60;40.50;;;;;;5053800;28;20033;-52
2021/12/29 09:51:45;;;;;;;2.25;0.93;;;22.60;40.50;;;;;;5048589;28;20035;-56
2021/12/29 09:54:12;;;;;;;2.20;0.80;;;22.70;40.50;;;;;;5053785;28;20032;-52
2021/12/29 09:56:38;;;;;;;1.42;0.80;;;22.70;40.40;;;;;;5054492;28;20033;-51
2021/12/29 09:59:04;;;;;;;1.60;0.80;;;22.70;40.40;;;;;;5036597;28;20047;-56
2021/12/29 10:01:30;;;;;;;2.10;0.90;;;22.70;40.30;;;;;;5054515;28;20508;-54
2021/12/29 10:03:56;;;;;;;1.75;0.80;;;22.70;40.30;;;;;;5053992;28;20072;-57
2021/12/29 10:06:22;;;;;;;1.40;0.65;;;22.60;40.20;;;;;;5054259;28;20024;-54
2021/12/29 10:08:48;;;;;;;1.33;0.63;;;22.60;40.20;;;;;;5054466;28;20017;-54
2021/12/29 10:11:25;;;;;;;1.75;0.70;;;22.60;40.20;;;;;;5054060;28;20054;-52
2021/12/29 10:13:52;;;;;;;1.23;0.68;;;22.60;40.30;;;;;;5054417;28;20025;-51
2021/12/29 10:16:24;;;;;;;1.88;0.80;;;22.50;40.30;;;;;;5053950;28;20120;-52
2021/12/29 10:18:58;;;;;;;2.33;1.20;;;22.50;40.30;;;;;;5054013;28;20033;-53
2021/12/29 10:21:27;;;;;;;2.08;0.90;;;22.40;40.30;;;;;;5054172;28;20028;-52
2021/12/29 10:23:55;;;;;;;2.58;1.00;;;22.40;40.40;;;;;;5053733;28;20112;-51
2021/12/29 10:26:28;;;;;;;1.85;0.95;;;22.30;40.40;;;;;;5053839;28;20036;-53
2021/12/29 10:29:02;;;;;;;1.33;0.60;;;22.30;40.40;;;;;;5055777;28;20033;-52
2021/12/29 10:31:30;;;;;;;1.20;0.70;;;22.20;40.40;;;;;;5057703;28;20459;-53
2021/12/29 10:33:59;;;;;;;1.25;0.82;;;22.20;40.50;;;;;;5057808;28;20033;-56
2021/12/29 10:36:26;;;;;;;1.40;0.80;;;22.20;40.50;;;;;;5057329;28;20032;-52
2021/12/29 10:39:21;;;;;;;1.80;0.88;;;22.20;40.60;;;;;;5057332;28;20355;-53
2021/12/29 10:41:56;;;;;;;;;;;22.20;40.50;;;;;;5057851;28;20061;-51
2021/12/29 10:44:46;;;;;;;1.05;0.77;;;22.10;40.60;;;;;;5057279;28;19904;-59
2021/12/29 10:47:17;;;;;;;1.52;0.77;;;22.10;40.70;;;;;;5057582;28;20033;-50
2021/12/29 10:49:52;;;;;;;1.52;0.70;;;22.10;40.70;;;;;;5057586;28;20029;-54
2021/12/29 10:52:40;;;;;;;1.80;0.80;;;22.00;40.60;;;;;;5057238;28;20402;-52
2021/12/29 10:55:09;;;;;;;4.97;1.20;;;22.10;40.60;;;;;;5050725;28;20120;-55
2021/12/29 10:57:35;;;;;;;1.00;0.77;;;22.00;40.70;;;;;;5053857;28;20453;-53
2021/12/29 11:00:05;;;;;;;2.50;0.93;;;22.00;40.80;;;;;;5042557;28;20476;-52
2021/12/29 11:02:33;;;;;;;1.25;0.73;;;22.00;40.90;;;;;;5037377;28;20033;-54
2021/12/29 11:05:08;;;;;;;1.58;0.80;;;22.00;41.00;;;;;;5050818;28;20024;-51
2021/12/29 11:07:34;;;;;;;;;;;22.00;41.00;;;;;;5038587;28;20021;-56
2021/12/29 11:10:12;;;;;;;1.38;0.65;;;21.90;41.00;;;;;;5051107;28;19955;-52
2021/12/29 11:12:51;;;;;;;0.88;0.50;;;21.90;41.00;;;;;;5046726;28;20028;-57
2021/12/29 11:15:26;;;;;;;2.60;0.80;;;21.90;41.00;;;;;;5044191;28;20100;-55
2021/12/29 11:17:54;;;;;;;1.05;0.68;;;21.90;41.10;;;;;;5054140;28;20051;-53
2021/12/29 11:20:23;;;;;;;1.27;0.75;;;21.90;41.10;;;;;;5056869;28;20033;-54
2021/12/29 11:22:51;;;;;;;1.48;0.73;;;21.90;41.10;;;;;;5055293;28;20079;-52
2021/12/29 11:25:32;;;;;;;1.00;0.60;;;21.90;41.10;;;;;;5053809;28;20462;-54
2021/12/29 11:27:58;;;;;;;2.63;0.65;;;22.00;41.10;;;;;;5043641;28;20029;-51
2021/12/29 11:30:24;;;;;;;3.78;0.63;;;21.90;41.10;;;;;;5055385;28;20092;-50
2021/12/29 11:32:50;;;;;;;1.95;0.47;;;21.90;41.10;;;;;;5058836;28;20017;-54
2021/12/29 11:35:19;;;;;;;1.30;0.70;;;21.90;41.20;;;;;;5054309;28;20063;-54
2021/12/29 11:37:56;;;;;;;1.17;0.70;;;21.90;41.20;;;;;;5047867;28;20024;-55
2021/12/29 11:40:31;;;;;;;1.05;0.80;;;22.00;41.30;;;;;;5052417;28;20036;-51
2021/12/29 11:42:59;;;;;;;1.17;0.70;;;22.00;41.30;;;;;;5051036;28;20467;-58
2021/12/29 11:45:26;;;;;;;1.70;0.80;;;22.00;41.30;;;;;;5053884;28;20332;-51
2021/12/29 11:47:52;;;;;;;2.55;0.70;;;22.00;41.30;;;;;;5053614;28;20021;-50
2021/12/29 11:50:19;;;;;;;2.38;0.50;;;22.00;41.30;;;;;;5052807;28;20020;-53
2021/12/29 11:53:23;;;;;;;1.05;0.70;;;22.00;41.30;;;;;;5053547;28;20317;-47
2021/12/29 11:55:53;;;;;;;1.23;0.60;;;22.00;41.20;;;;;;5052824;28;20086;-51
2021/12/29 11:58:28;;;;;;;4.93;0.77;;;22.00;41.30;;;;;;5053191;28;20111;-50
2021/12/29 12:01:16;;;;;;;0.80;0.60;;;22.00;41.20;;;;;;5054143;28;20020;-55
2021/12/29 12:03:56;;;;;;;1.70;0.77;;;22.10;41.20;;;;;;5050540;28;20052;-55
2021/12/29 12:06:23;;;;;;;1.17;0.60;;;22.10;41.30;;;;;;5050089;28;20039;-49
2021/12/29 12:09:02;;;;;;;1.02;0.50;;;22.10;41.20;;;;;;5035419;28;20428;-50
2021/12/29 12:11:30;;;;;;;1.27;0.60;;;22.10;41.10;;;;;;5052386;28;20025;-53
2021/12/29 12:13:56;;;;;;;1.88;0.80;;;22.10;41.20;;;;;;5053873;28;20025;-58
2021/12/29 12:16:28;;;;;;;2.35;1.23;;;22.10;41.20;;;;;;5049792;28;20103;-56
2021/12/29 12:18:57;;;;;;;1.75;1.05;;;22.10;41.30;;;;;;5053279;28;20040;-53
2021/12/29 12:21:24;;;;;;;1.70;0.82;;;22.10;41.30;;;;;;5053378;28;20118;-53
2021/12/29 12:23:51;;;;;;;1.73;0.80;;;22.20;41.30;;;;;;5053702;28;20071;-57
2021/12/29 12:26:22;;;;;;;1.70;0.82;;;22.20;41.30;;;;;;5041181;28;20115;-56
2021/12/29 12:28:51;;;;;;;4.35;0.70;;;22.20;41.20;;;;;;5038800;28;20064;-54
2021/12/29 12:31:31;;;;;;;1.83;0.68;;;22.20;41.20;;;;;;5036132;28;20029;-57
2021/12/29 12:34:13;;;;;;;1.13;0.80;;;22.30;41.20;;;;;;5040606;28;20495;-55
2021/12/29 12:36:41;;;;;;;1.98;0.82;;;22.40;41.20;;;;;;5049796;28;20029;-54
2021/12/29 12:39:10;;;;;;;1.55;0.80;;;22.40;41.30;;;;;;5037888;28;20037;-54
2021/12/29 12:41:50;;;;;;;1.67;0.90;;;22.40;41.30;;;;;;5042237;28;20094;-56
2021/12/29 12:44:19;;;;;;;1.52;0.63;;;22.50;41.30;;;;;;5047816;28;20444;-58
2021/12/29 12:46:49;;;;;;;1.33;0.70;;;22.50;41.30;;;;;;5052002;28;20108;-54
2021/12/29 12:49:28;;;;;;;4.07;0.75;;;22.50;41.20;;;;;;5055218;28;20028;-54
2021/12/29 12:52:04;;;;;;;1.35;0.68;;;22.50;41.20;;;;;;5049683;28;20017;-53
2021/12/29 12:54:35;;;;;;;0.98;0.65;;;22.50;41.20;;;;;;5054869;28;20103;-52
2021/12/29 12:57:02;;;;;;;1.30;0.95;;;22.50;41.20;;;;;;5041597;28;20317;-47
2021/12/29 12:59:37;;;;;;;3.80;0.70;;;22.60;41.20;;;;;;5042882;28;20523;-52
2021/12/29 13:02:38;;;;;;;2.00;0.95;;;22.60;41.70;;;;;;5037375;28;20344;-51
2021/12/29 13:05:07;;;;;;;1.40;0.80;;;22.60;41.00;;;;;;4999318;28;20046;-51